sensor_id;sensor_type;location;lat;lon;timestamp;temperature;humidity
29775;DHT22;16676;51.202;6.774;2022-12-18T00:01:22;13.70;62.50
29775;DHT22;16676;51.202;6.774;2022-12-18T00:05:25;13.70;62.10
29775;DHT22;16676;51.202;6.774;2022-12-18T00:09:27;13.70;61.90
29775;DHT22;16676;51.202;6.774;2022-12-18T00:13:29;13.70;61.80
29775;DHT22;16676;51.202;6.774;2022-12-18T00:17:31;13.70;61.70
29775;DHT22;16676;51.202;6.774;2022-12-18T00:21:34;13.70;61.60
29775;DHT22;16676;51.202;6.774;2022-12-18T00:25:36;13.70;61.50
29775;DHT22;16676;51.202;6.774;2022-12-18T00:29:38;13.60;61.30
29775;DHT22;16676;51.202;6.774;2022-12-18T00:33:40;13.40;61.40
29775;DHT22;16676;51.202;6.774;2022-12-18T00:37:43;13.50;61.10
29775;DHT22;16676;51.202;6.774;2022-12-18T00:41:45;13.70;60.10
29775;DHT22;16676;51.202;6.774;2022-12-18T00:46:05;13.70;60.10
29775;DHT22;16676;51.202;6.774;2022-12-18T00:50:08;13.70;59.90
29775;DHT22;16676;51.202;6.774;2022-12-18T00:54:12;13.70;60.00
29775;DHT22;16676;51.202;6.774;2022-12-18T00:58:16;13.60;60.20
29775;DHT22;16676;51.202;6.774;2022-12-18T01:02:18;13.60;60.60
29775;DHT22;16676;51.202;6.774;2022-12-18T01:06:20;13.50;60.60
29775;DHT22;16676;51.202;6.774;2022-12-18T01:10:23;13.50;60.60
29775;DHT22;16676;51.202;6.774;2022-12-18T01:14:26;13.50;60.90
29775;DHT22;16676;51.202;6.774;2022-12-18T01:18:28;13.50;60.80
29775;DHT22;16676;51.202;6.774;2022-12-18T01:22:29;13.40;60.70
29775;DHT22;16676;51.202;6.774;2022-12-18T01:26:33;13.40;60.90
29775;DHT22;16676;51.202;6.774;2022-12-18T01:30:35;13.40;61.10
29775;DHT22;16676;51.202;6.774;2022-12-18T01:34:37;13.40;61.30
29775;DHT22;16676;51.202;6.774;2022-12-18T01:38:39;13.40;61.70
29775;DHT22;16676;51.202;6.774;2022-12-18T01:42:42;13.40;61.60
29775;DHT22;16676;51.202;6.774;2022-12-18T01:46:44;13.40;61.50
29775;DHT22;16676;51.202;6.774;2022-12-18T01:50:45;13.40;61.40
29775;DHT22;16676;51.202;6.774;2022-12-18T01:54:49;13.30;61.40
29775;DHT22;16676;51.202;6.774;2022-12-18T01:58:56;13.30;61.50
29775;DHT22;16676;51.202;6.774;2022-12-18T02:02:59;13.30;61.70
29775;DHT22;16676;51.202;6.774;2022-12-18T02:07:07;13.30;61.70
29775;DHT22;16676;51.202;6.774;2022-12-18T02:11:26;13.30;61.90
29775;DHT22;16676;51.202;6.774;2022-12-18T02:15:40;13.30;62.20
29775;DHT22;16676;51.202;6.774;2022-12-18T02:19:58;13.40;61.70
29775;DHT22;16676;51.202;6.774;2022-12-18T02:24:14;13.40;61.70
29775;DHT22;16676;51.202;6.774;2022-12-18T02:28:20;13.40;61.70
29775;DHT22;16676;51.202;6.774;2022-12-18T02:32:27;13.40;61.60
29775;DHT22;16676;51.202;6.774;2022-12-18T02:36:32;13.30;61.60
29775;DHT22;16676;51.202;6.774;2022-12-18T02:40:36;13.20;62.40
29775;DHT22;16676;51.202;6.774;2022-12-18T02:44:44;13.20;61.70
29775;DHT22;16676;51.202;6.774;2022-12-18T02:48:46;13.20;61.70
29775;DHT22;16676;51.202;6.774;2022-12-18T02:52:55;13.20;61.50
29775;DHT22;16676;51.202;6.774;2022-12-18T02:57:06;13.20;61.40
29775;DHT22;16676;51.202;6.774;2022-12-18T03:01:18;13.20;61.40
29775;DHT22;16676;51.202;6.774;2022-12-18T03:05:24;13.20;61.30
29775;DHT22;16676;51.202;6.774;2022-12-18T03:09:31;13.20;62.20
29775;DHT22;16676;51.202;6.774;2022-12-18T03:13:37;13.20;61.50
29775;DHT22;16676;51.202;6.774;2022-12-18T03:17:45;13.20;61.50
29775;DHT22;16676;51.202;6.774;2022-12-18T03:21:51;13.20;61.50
29775;DHT22;16676;51.202;6.774;2022-12-18T03:25:57;13.20;61.60
29775;DHT22;16676;51.202;6.774;2022-12-18T03:30:04;13.20;61.40
29775;DHT22;16676;51.202;6.774;2022-12-18T03:34:14;13.10;61.30
29775;DHT22;16676;51.202;6.774;2022-12-18T03:38:17;13.10;61.40
29775;DHT22;16676;51.202;6.774;2022-12-18T03:42:24;13.10;61.70
29775;DHT22;16676;51.202;6.774;2022-12-18T03:46:32;13.10;61.60
29775;DHT22;16676;51.202;6.774;2022-12-18T03:50:40;13.10;61.60
29775;DHT22;16676;51.202;6.774;2022-12-18T03:54:45;13.10;61.90
29775;DHT22;16676;51.202;6.774;2022-12-18T03:58:48;13.20;61.30
29775;DHT22;16676;51.202;6.774;2022-12-18T04:02:54;13.10;61.10
29775;DHT22;16676;51.202;6.774;2022-12-18T04:06:58;13.20;61.60
29775;DHT22;16676;51.202;6.774;2022-12-18T04:11:01;13.20;61.20
29775;DHT22;16676;51.202;6.774;2022-12-18T04:15:04;13.10;60.90
29775;DHT22;16676;51.202;6.774;2022-12-18T04:19:06;13.10;60.90
29775;DHT22;16676;51.202;6.774;2022-12-18T04:23:09;13.00;60.80
29775;DHT22;16676;51.202;6.774;2022-12-18T04:27:11;13.00;60.90
29775;DHT22;16676;51.202;6.774;2022-12-18T04:31:13;13.00;61.00
29775;DHT22;16676;51.202;6.774;2022-12-18T04:35:15;13.00;60.70
29775;DHT22;16676;51.202;6.774;2022-12-18T04:39:18;13.00;60.60
29775;DHT22;16676;51.202;6.774;2022-12-18T04:43:20;13.00;60.40
29775;DHT22;16676;51.202;6.774;2022-12-18T04:47:22;12.90;60.20
29775;DHT22;16676;51.202;6.774;2022-12-18T04:51:24;12.90;60.30
29775;DHT22;16676;51.202;6.774;2022-12-18T04:55:27;13.00;60.30
29775;DHT22;16676;51.202;6.774;2022-12-18T04:59:29;12.90;60.20
29775;DHT22;16676;51.202;6.774;2022-12-18T05:03:31;12.90;60.20
29775;DHT22;16676;51.202;6.774;2022-12-18T05:07:33;12.90;60.50
29775;DHT22;16676;51.202;6.774;2022-12-18T05:11:36;12.90;60.30
29775;DHT22;16676;51.202;6.774;2022-12-18T05:15:38;12.90;60.60
29775;DHT22;16676;51.202;6.774;2022-12-18T05:19:40;12.90;60.30
29775;DHT22;16676;51.202;6.774;2022-12-18T05:23:42;12.90;60.60
29775;DHT22;16676;51.202;6.774;2022-12-18T05:27:45;12.90;60.40
29775;DHT22;16676;51.202;6.774;2022-12-18T05:31:47;12.90;60.50
29775;DHT22;16676;51.202;6.774;2022-12-18T05:35:50;12.80;60.50
29775;DHT22;16676;51.202;6.774;2022-12-18T05:39:52;12.90;60.60
29775;DHT22;16676;51.202;6.774;2022-12-18T05:43:55;12.90;60.60
29775;DHT22;16676;51.202;6.774;2022-12-18T05:47:58;12.90;60.70
29775;DHT22;16676;51.202;6.774;2022-12-18T05:51:59;12.90;61.00
29775;DHT22;16676;51.202;6.774;2022-12-18T05:56:03;12.90;61.10
29775;DHT22;16676;51.202;6.774;2022-12-18T06:00:08;12.90;60.70
29775;DHT22;16676;51.202;6.774;2022-12-18T06:04:10;12.90;60.50
29775;DHT22;16676;51.202;6.774;2022-12-18T06:08:13;13.00;60.50
29775;DHT22;16676;51.202;6.774;2022-12-18T06:12:15;13.30;59.30
29775;DHT22;16676;51.202;6.774;2022-12-18T06:16:18;13.60;58.60
29775;DHT22;16676;51.202;6.774;2022-12-18T06:20:20;13.80;58.20
29775;DHT22;16676;51.202;6.774;2022-12-18T06:24:22;13.80;57.90
29775;DHT22;16676;51.202;6.774;2022-12-18T06:28:24;13.80;57.60
29775;DHT22;16676;51.202;6.774;2022-12-18T06:32:27;13.90;57.60
29775;DHT22;16676;51.202;6.774;2022-12-18T06:36:29;13.90;57.60
29775;DHT22;16676;51.202;6.774;2022-12-18T06:40:31;13.90;57.60
29775;DHT22;16676;51.202;6.774;2022-12-18T06:44:33;13.90;57.60
29775;DHT22;16676;51.202;6.774;2022-12-18T06:48:36;13.70;57.40
29775;DHT22;16676;51.202;6.774;2022-12-18T06:52:38;13.70;57.50
29775;DHT22;16676;51.202;6.774;2022-12-18T06:56:40;13.70;57.80
29775;DHT22;16676;51.202;6.774;2022-12-18T07:00:43;13.60;57.50
29775;DHT22;16676;51.202;6.774;2022-12-18T07:04:46;13.50;57.50
29775;DHT22;16676;51.202;6.774;2022-12-18T07:08:49;13.40;57.80
29775;DHT22;16676;51.202;6.774;2022-12-18T07:12:51;13.30;58.00
29775;DHT22;16676;51.202;6.774;2022-12-18T07:16:53;13.30;58.20
29775;DHT22;16676;51.202;6.774;2022-12-18T07:20:56;13.30;58.20
29775;DHT22;16676;51.202;6.774;2022-12-18T07:24:58;13.30;58.20
29775;DHT22;16676;51.202;6.774;2022-12-18T07:29:00;13.20;58.20
29775;DHT22;16676;51.202;6.774;2022-12-18T07:33:02;13.10;58.40
29775;DHT22;16676;51.202;6.774;2022-12-18T07:37:05;13.10;58.50
29775;DHT22;16676;51.202;6.774;2022-12-18T07:41:09;13.10;58.70
29775;DHT22;16676;51.202;6.774;2022-12-18T07:45:11;13.00;58.60
29775;DHT22;16676;51.202;6.774;2022-12-18T07:49:13;13.00;58.50
29775;DHT22;16676;51.202;6.774;2022-12-18T07:53:16;13.00;58.20
29775;DHT22;16676;51.202;6.774;2022-12-18T07:57:18;13.00;59.00
29775;DHT22;16676;51.202;6.774;2022-12-18T08:01:20;13.00;58.40
29775;DHT22;16676;51.202;6.774;2022-12-18T08:05:22;13.00;58.30
29775;DHT22;16676;51.202;6.774;2022-12-18T08:09:25;13.00;58.10
29775;DHT22;16676;51.202;6.774;2022-12-18T08:13:27;13.00;58.10
29775;DHT22;16676;51.202;6.774;2022-12-18T08:17:30;13.40;57.00
29775;DHT22;16676;51.202;6.774;2022-12-18T08:21:32;14.10;54.80
29775;DHT22;16676;51.202;6.774;2022-12-18T08:25:35;14.50;53.50
29775;DHT22;16676;51.202;6.774;2022-12-18T08:29:37;14.50;53.50
29775;DHT22;16676;51.202;6.774;2022-12-18T08:33:40;14.40;53.80
29775;DHT22;16676;51.202;6.774;2022-12-18T08:37:42;14.30;54.00
29775;DHT22;16676;51.202;6.774;2022-12-18T08:41:45;13.20;45.90
29775;DHT22;16676;51.202;6.774;2022-12-18T08:46:07;10.80;43.00
29775;DHT22;16676;51.202;6.774;2022-12-18T08:50:10;9.60;44.30
29775;DHT22;16676;51.202;6.774;2022-12-18T08:54:12;10.10;47.50
29775;DHT22;16676;51.202;6.774;2022-12-18T08:58:16;11.60;47.40
29775;DHT22;16676;51.202;6.774;2022-12-18T09:02:18;12.80;47.00
29775;DHT22;16676;51.202;6.774;2022-12-18T09:06:21;13.60;46.90
29775;DHT22;16676;51.202;6.774;2022-12-18T09:10:23;14.10;47.50
29775;DHT22;16676;51.202;6.774;2022-12-18T09:14:26;14.50;47.90
29775;DHT22;16676;51.202;6.774;2022-12-18T09:18:28;14.80;48.20
29775;DHT22;16676;51.202;6.774;2022-12-18T09:22:31;15.00;48.50
29775;DHT22;16676;51.202;6.774;2022-12-18T09:26:33;15.30;48.90
29775;DHT22;16676;51.202;6.774;2022-12-18T09:30:38;15.50;49.00
29775;DHT22;16676;51.202;6.774;2022-12-18T09:34:40;15.60;49.20
29775;DHT22;16676;51.202;6.774;2022-12-18T09:38:42;15.70;49.30
29775;DHT22;16676;51.202;6.774;2022-12-18T09:42:46;15.80;49.40
29775;DHT22;16676;51.202;6.774;2022-12-18T09:46:55;15.90;49.70
29775;DHT22;16676;51.202;6.774;2022-12-18T09:51:04;15.90;49.80
29775;DHT22;16676;51.202;6.774;2022-12-18T09:55:13;15.90;50.00
29775;DHT22;16676;51.202;6.774;2022-12-18T09:59:21;15.90;50.10
29775;DHT22;16676;51.202;6.774;2022-12-18T10:03:26;15.90;50.30
29775;DHT22;16676;51.202;6.774;2022-12-18T10:07:37;15.90;50.20
29775;DHT22;16676;51.202;6.774;2022-12-18T10:11:48;15.90;50.30
29775;DHT22;16676;51.202;6.774;2022-12-18T10:16:12;16.10;51.10
29775;DHT22;16676;51.202;6.774;2022-12-18T10:20:22;16.20;50.90
29775;DHT22;16676;51.202;6.774;2022-12-18T10:24:31;16.40;51.10
29775;DHT22;16676;51.202;6.774;2022-12-18T10:28:36;16.50;51.10
29775;DHT22;16676;51.202;6.774;2022-12-18T10:32:40;16.70;51.10
29775;DHT22;16676;51.202;6.774;2022-12-18T10:36:43;16.70;50.90
29775;DHT22;16676;51.202;6.774;2022-12-18T10:40:51;16.80;51.00
29775;DHT22;16676;51.202;6.774;2022-12-18T10:45:01;16.90;50.90
29775;DHT22;16676;51.202;6.774;2022-12-18T10:49:03;16.90;51.00
29775;DHT22;16676;51.202;6.774;2022-12-18T10:53:19;16.90;51.10
29775;DHT22;16676;51.202;6.774;2022-12-18T10:57:33;17.00;51.10
29775;DHT22;16676;51.202;6.774;2022-12-18T11:01:47;17.00;51.00
29775;DHT22;16676;51.202;6.774;2022-12-18T11:06:01;16.90;51.10
29775;DHT22;16676;51.202;6.774;2022-12-18T11:10:14;16.90;51.10
29775;DHT22;16676;51.202;6.774;2022-12-18T11:14:20;16.90;51.10
29775;DHT22;16676;51.202;6.774;2022-12-18T11:18:27;16.90;51.10
29775;DHT22;16676;51.202;6.774;2022-12-18T11:22:31;16.90;51.00
29775;DHT22;16676;51.202;6.774;2022-12-18T11:26:35;16.80;51.20
29775;DHT22;16676;51.202;6.774;2022-12-18T11:30:37;16.80;51.20
29775;DHT22;16676;51.202;6.774;2022-12-18T11:34:41;16.70;51.40
29775;DHT22;16676;51.202;6.774;2022-12-18T11:38:44;16.70;52.10
29775;DHT22;16676;51.202;6.774;2022-12-18T11:42:54;16.60;51.60
29775;DHT22;16676;51.202;6.774;2022-12-18T11:47:01;16.60;51.90
29775;DHT22;16676;51.202;6.774;2022-12-18T11:51:11;16.50;52.00
29775;DHT22;16676;51.202;6.774;2022-12-18T11:55:16;16.40;52.00
29775;DHT22;16676;51.202;6.774;2022-12-18T11:59:28;16.30;52.50
29775;DHT22;16676;51.202;6.774;2022-12-18T12:03:51;16.20;54.00
29775;DHT22;16676;51.202;6.774;2022-12-18T12:08:01;16.10;55.50
29775;DHT22;16676;51.202;6.774;2022-12-18T12:12:22;16.20;56.20
29775;DHT22;16676;51.202;6.774;2022-12-18T12:16:29;16.20;56.50
29775;DHT22;16676;51.202;6.774;2022-12-18T12:20:45;16.20;57.50
29775;DHT22;16676;51.202;6.774;2022-12-18T12:24:58;16.10;59.20
29775;DHT22;16676;51.202;6.774;2022-12-18T12:29:13;16.00;61.10
29775;DHT22;16676;51.202;6.774;2022-12-18T12:33:31;16.00;61.10
29775;DHT22;16676;51.202;6.774;2022-12-18T12:37:44;15.70;63.70
29775;DHT22;16676;51.202;6.774;2022-12-18T12:41:50;15.60;65.30
29775;DHT22;16676;51.202;6.774;2022-12-18T12:46:13;15.40;65.50
29775;DHT22;16676;51.202;6.774;2022-12-18T12:50:19;15.40;66.30
29775;DHT22;16676;51.202;6.774;2022-12-18T12:54:24;15.30;66.90
29775;DHT22;16676;51.202;6.774;2022-12-18T12:58:33;15.20;67.00
29775;DHT22;16676;51.202;6.774;2022-12-18T13:02:44;15.20;67.10
29775;DHT22;16676;51.202;6.774;2022-12-18T13:06:55;15.10;67.30
29775;DHT22;16676;51.202;6.774;2022-12-18T13:11:00;15.10;67.30
29775;DHT22;16676;51.202;6.774;2022-12-18T13:15:21;15.10;67.30
29775;DHT22;16676;51.202;6.774;2022-12-18T13:19:26;15.10;66.80
29775;DHT22;16676;51.202;6.774;2022-12-18T13:23:32;15.00;67.00
29775;DHT22;16676;51.202;6.774;2022-12-18T13:28:00;14.90;67.70
29775;DHT22;16676;51.202;6.774;2022-12-18T13:32:03;14.80;67.80
29775;DHT22;16676;51.202;6.774;2022-12-18T13:36:13;14.70;68.10
29775;DHT22;16676;51.202;6.774;2022-12-18T13:45:01;14.60;68.10
29775;DHT22;16676;51.202;6.774;2022-12-18T13:49:15;14.80;68.90
29775;DHT22;16676;51.202;6.774;2022-12-18T13:53:22;14.90;69.20
29775;DHT22;16676;51.202;6.774;2022-12-18T13:57:27;15.00;67.90
29775;DHT22;16676;51.202;6.774;2022-12-18T14:01:30;15.40;67.60
29775;DHT22;16676;51.202;6.774;2022-12-18T14:05:34;15.80;65.30
29775;DHT22;16676;51.202;6.774;2022-12-18T14:09:40;16.10;64.90
29775;DHT22;16676;51.202;6.774;2022-12-18T14:13:43;16.30;64.60
29775;DHT22;16676;51.202;6.774;2022-12-18T14:17:46;16.50;66.10
29775;DHT22;16676;51.202;6.774;2022-12-18T14:21:49;16.60;66.00
29775;DHT22;16676;51.202;6.774;2022-12-18T14:25:52;16.80;65.80
29775;DHT22;16676;51.202;6.774;2022-12-18T14:29:54;16.90;65.20
29775;DHT22;16676;51.202;6.774;2022-12-18T14:33:57;17.00;64.80
29775;DHT22;16676;51.202;6.774;2022-12-18T14:38:20;17.10;63.80
29775;DHT22;16676;51.202;6.774;2022-12-18T14:42:23;17.10;63.60
29775;DHT22;16676;51.202;6.774;2022-12-18T14:46:32;17.20;63.40
29775;DHT22;16676;51.202;6.774;2022-12-18T14:50:37;17.30;64.30
29775;DHT22;16676;51.202;6.774;2022-12-18T14:54:39;17.30;64.00
29775;DHT22;16676;51.202;6.774;2022-12-18T14:58:45;17.30;64.20
29775;DHT22;16676;51.202;6.774;2022-12-18T15:02:50;17.30;63.90
29775;DHT22;16676;51.202;6.774;2022-12-18T15:07:08;17.30;63.60
29775;DHT22;16676;51.202;6.774;2022-12-18T15:11:27;17.20;63.20
29775;DHT22;16676;51.202;6.774;2022-12-18T15:15:46;17.20;63.50
29775;DHT22;16676;51.202;6.774;2022-12-18T15:19:49;17.10;63.40
29775;DHT22;16676;51.202;6.774;2022-12-18T15:23:54;17.10;63.90
29775;DHT22;16676;51.202;6.774;2022-12-18T15:27:56;17.00;63.60
29775;DHT22;16676;51.202;6.774;2022-12-18T15:32:03;17.00;63.70
29775;DHT22;16676;51.202;6.774;2022-12-18T15:36:09;16.90;63.80
29775;DHT22;16676;51.202;6.774;2022-12-18T15:40:17;16.90;64.10
29775;DHT22;16676;51.202;6.774;2022-12-18T15:44:22;16.80;64.30
29775;DHT22;16676;51.202;6.774;2022-12-18T15:48:25;16.80;64.80
29775;DHT22;16676;51.202;6.774;2022-12-18T15:52:27;16.70;64.40
29775;DHT22;16676;51.202;6.774;2022-12-18T15:56:30;16.70;64.90
29775;DHT22;16676;51.202;6.774;2022-12-18T16:00:49;16.70;64.90
29775;DHT22;16676;51.202;6.774;2022-12-18T16:04:52;16.60;64.20
29775;DHT22;16676;51.202;6.774;2022-12-18T16:08:54;16.50;64.50
29775;DHT22;16676;51.202;6.774;2022-12-18T16:12:57;16.40;64.60
29775;DHT22;16676;51.202;6.774;2022-12-18T16:17:01;16.40;64.70
29775;DHT22;16676;51.202;6.774;2022-12-18T16:21:03;16.30;65.60
29775;DHT22;16676;51.202;6.774;2022-12-18T16:25:05;16.30;64.30
29775;DHT22;16676;51.202;6.774;2022-12-18T16:29:09;16.20;65.70
29775;DHT22;16676;51.202;6.774;2022-12-18T16:33:11;16.00;67.30
29775;DHT22;16676;51.202;6.774;2022-12-18T16:37:14;16.00;68.90
29775;DHT22;16676;51.202;6.774;2022-12-18T16:41:18;16.00;69.70
29775;DHT22;16676;51.202;6.774;2022-12-18T16:45:34;16.00;70.10
29775;DHT22;16676;51.202;6.774;2022-12-18T16:49:36;16.00;72.40
29775;DHT22;16676;51.202;6.774;2022-12-18T16:53:37;15.90;73.10
29775;DHT22;16676;51.202;6.774;2022-12-18T16:57:39;15.80;74.50
29775;DHT22;16676;51.202;6.774;2022-12-18T17:01:43;15.90;75.70
29775;DHT22;16676;51.202;6.774;2022-12-18T17:05:44;15.80;76.10
29775;DHT22;16676;51.202;6.774;2022-12-18T17:09:46;15.70;71.70
29775;DHT22;16676;51.202;6.774;2022-12-18T17:13:50;15.60;70.50
29775;DHT22;16676;51.202;6.774;2022-12-18T17:17:53;15.60;74.40
29775;DHT22;16676;51.202;6.774;2022-12-18T17:21:55;15.50;73.20
29775;DHT22;16676;51.202;6.774;2022-12-18T17:25:58;15.40;73.20
29775;DHT22;16676;51.202;6.774;2022-12-18T17:30:00;15.30;73.30
29775;DHT22;16676;51.202;6.774;2022-12-18T17:34:04;15.20;73.20
29775;DHT22;16676;51.202;6.774;2022-12-18T17:38:06;15.10;73.00
29775;DHT22;16676;51.202;6.774;2022-12-18T17:42:08;15.20;72.40
29775;DHT22;16676;51.202;6.774;2022-12-18T17:46:12;15.10;72.50
29775;DHT22;16676;51.202;6.774;2022-12-18T17:50:16;15.10;72.20
29775;DHT22;16676;51.202;6.774;2022-12-18T17:54:18;15.10;71.50
29775;DHT22;16676;51.202;6.774;2022-12-18T17:58:20;15.10;71.60
29775;DHT22;16676;51.202;6.774;2022-12-18T18:02:22;15.10;72.50
29775;DHT22;16676;51.202;6.774;2022-12-18T18:06:25;15.00;72.30
29775;DHT22;16676;51.202;6.774;2022-12-18T18:10:27;14.90;72.20
29775;DHT22;16676;51.202;6.774;2022-12-18T18:14:29;14.90;71.70
29775;DHT22;16676;51.202;6.774;2022-12-18T18:18:31;14.90;71.80
29775;DHT22;16676;51.202;6.774;2022-12-18T18:22:34;14.00;57.30
29775;DHT22;16676;51.202;6.774;2022-12-18T18:26:37;13.70;59.70
29775;DHT22;16676;51.202;6.774;2022-12-18T18:30:39;14.20;68.80
29775;DHT22;16676;51.202;6.774;2022-12-18T18:34:41;15.10;67.70
29775;DHT22;16676;51.202;6.774;2022-12-18T18:38:44;15.70;67.10
29775;DHT22;16676;51.202;6.774;2022-12-18T18:42:46;16.10;67.40
29775;DHT22;16676;51.202;6.774;2022-12-18T18:46:48;16.50;67.40
29775;DHT22;16676;51.202;6.774;2022-12-18T18:50:55;16.80;66.80
29775;DHT22;16676;51.202;6.774;2022-12-18T18:54:58;17.00;66.50
29775;DHT22;16676;51.202;6.774;2022-12-18T18:59:00;17.10;66.20
29775;DHT22;16676;51.202;6.774;2022-12-18T19:03:02;17.30;66.10
29775;DHT22;16676;51.202;6.774;2022-12-18T19:07:04;17.40;66.00
29775;DHT22;16676;51.202;6.774;2022-12-18T19:11:09;17.60;65.60
29775;DHT22;16676;51.202;6.774;2022-12-18T19:15:32;17.60;65.30
29775;DHT22;16676;51.202;6.774;2022-12-18T19:19:34;17.70;65.60
29775;DHT22;16676;51.202;6.774;2022-12-18T19:23:36;17.80;65.40
29775;DHT22;16676;51.202;6.774;2022-12-18T19:27:39;17.80;65.20
29775;DHT22;16676;51.202;6.774;2022-12-18T19:31:41;17.80;65.70
29775;DHT22;16676;51.202;6.774;2022-12-18T19:35:44;17.80;65.30
29775;DHT22;16676;51.202;6.774;2022-12-18T19:39:46;17.70;65.60
29775;DHT22;16676;51.202;6.774;2022-12-18T19:43:50;17.70;65.50
29775;DHT22;16676;51.202;6.774;2022-12-18T19:47:52;17.70;65.90
29775;DHT22;16676;51.202;6.774;2022-12-18T19:51:54;17.60;65.30
29775;DHT22;16676;51.202;6.774;2022-12-18T19:55:56;17.60;65.90
29775;DHT22;16676;51.202;6.774;2022-12-18T19:59:59;17.50;66.10
29775;DHT22;16676;51.202;6.774;2022-12-18T20:04:01;17.50;65.60
29775;DHT22;16676;51.202;6.774;2022-12-18T20:08:03;17.40;65.80
29775;DHT22;16676;51.202;6.774;2022-12-18T20:12:05;17.40;66.30
29775;DHT22;16676;51.202;6.774;2022-12-18T20:16:09;17.30;66.30
29775;DHT22;16676;51.202;6.774;2022-12-18T20:20:11;17.30;66.40
29775;DHT22;16676;51.202;6.774;2022-12-18T20:24:13;17.10;66.60
29775;DHT22;16676;51.202;6.774;2022-12-18T20:28:15;17.10;66.60
29775;DHT22;16676;51.202;6.774;2022-12-18T20:32:18;17.10;66.90
29775;DHT22;16676;51.202;6.774;2022-12-18T20:36:20;17.00;66.90
29775;DHT22;16676;51.202;6.774;2022-12-18T20:40:23;16.90;67.00
29775;DHT22;16676;51.202;6.774;2022-12-18T20:44:25;16.80;66.60
29775;DHT22;16676;51.202;6.774;2022-12-18T20:48:28;16.80;66.70
29775;DHT22;16676;51.202;6.774;2022-12-18T20:52:30;16.70;66.60
29775;DHT22;16676;51.202;6.774;2022-12-18T20:56:32;16.60;66.30
29775;DHT22;16676;51.202;6.774;2022-12-18T21:00:34;16.50;66.90
29775;DHT22;16676;51.202;6.774;2022-12-18T21:04:37;16.30;67.50
29775;DHT22;16676;51.202;6.774;2022-12-18T21:08:39;16.10;68.40
29775;DHT22;16676;51.202;6.774;2022-12-18T21:12:41;15.90;69.00
29775;DHT22;16676;51.202;6.774;2022-12-18T21:16:48;15.90;69.80
29775;DHT22;16676;51.202;6.774;2022-12-18T21:20:55;15.80;69.90
29775;DHT22;16676;51.202;6.774;2022-12-18T21:24:57;15.80;70.30
29775;DHT22;16676;51.202;6.774;2022-12-18T21:29:01;15.70;70.80
29775;DHT22;16676;51.202;6.774;2022-12-18T21:33:03;15.70;71.50
29775;DHT22;16676;51.202;6.774;2022-12-18T21:37:06;15.60;71.40
29775;DHT22;16676;51.202;6.774;2022-12-18T21:41:09;15.50;71.70
29775;DHT22;16676;51.202;6.774;2022-12-18T21:45:32;15.50;72.50
29775;DHT22;16676;51.202;6.774;2022-12-18T21:49:34;15.40;72.80
29775;DHT22;16676;51.202;6.774;2022-12-18T21:53:37;15.30;73.00
29775;DHT22;16676;51.202;6.774;2022-12-18T21:57:39;15.30;73.30
29775;DHT22;16676;51.202;6.774;2022-12-18T22:01:41;15.20;73.50
29775;DHT22;16676;51.202;6.774;2022-12-18T22:05:43;15.10;73.60
29775;DHT22;16676;51.202;6.774;2022-12-18T22:09:49;15.10;73.60
29775;DHT22;16676;51.202;6.774;2022-12-18T22:13:51;15.10;73.40
29775;DHT22;16676;51.202;6.774;2022-12-18T22:17:53;15.20;72.80
29775;DHT22;16676;51.202;6.774;2022-12-18T22:21:55;15.20;72.70
29775;DHT22;16676;51.202;6.774;2022-12-18T22:25:58;15.20;72.20
29775;DHT22;16676;51.202;6.774;2022-12-18T22:30:00;15.20;72.00
29775;DHT22;16676;51.202;6.774;2022-12-18T22:34:05;15.20;72.30
29775;DHT22;16676;51.202;6.774;2022-12-18T22:38:08;15.20;71.70
29775;DHT22;16676;51.202;6.774;2022-12-18T22:42:11;15.10;71.30
29775;DHT22;16676;51.202;6.774;2022-12-18T22:46:15;15.20;71.10
29775;DHT22;16676;51.202;6.774;2022-12-18T22:50:17;15.10;71.50
29775;DHT22;16676;51.202;6.774;2022-12-18T22:54:19;15.10;71.40
29775;DHT22;16676;51.202;6.774;2022-12-18T22:58:23;15.00;71.50
29775;DHT22;16676;51.202;6.774;2022-12-18T23:02:25;15.00;71.30
29775;DHT22;16676;51.202;6.774;2022-12-18T23:06:27;15.00;71.20
29775;DHT22;16676;51.202;6.774;2022-12-18T23:10:28;14.90;71.20
29775;DHT22;16676;51.202;6.774;2022-12-18T23:14:32;14.90;71.60
29775;DHT22;16676;51.202;6.774;2022-12-18T23:18:34;14.90;71.30
29775;DHT22;16676;51.202;6.774;2022-12-18T23:22:36;14.90;71.50
29775;DHT22;16676;51.202;6.774;2022-12-18T23:26:38;14.80;72.00
29775;DHT22;16676;51.202;6.774;2022-12-18T23:30:41;14.70;72.00
29775;DHT22;16676;51.202;6.774;2022-12-18T23:34:43;15.00;70.00
29775;DHT22;16676;51.202;6.774;2022-12-18T23:38:47;15.10;69.10
29775;DHT22;16676;51.202;6.774;2022-12-18T23:42:49;15.30;69.00
29775;DHT22;16676;51.202;6.774;2022-12-18T23:46:53;15.30;68.70
29775;DHT22;16676;51.202;6.774;2022-12-18T23:50:55;15.30;68.60
29775;DHT22;16676;51.202;6.774;2022-12-18T23:54:56;15.20;68.20
29775;DHT22;16676;51.202;6.774;2022-12-18T23:58:59;15.10;68.80
